Terminal Aerodrome Forecast
Issued by NWS Charleston, WV

Current Version | Previous Version | Graphics & Text | Print | Product List | Glossary On
Versions: 1 2 3 4 5 6 7 8 9 10 11 12 13 14 15 16 17 18 19 20 21 22 23 24 25
000
FTUS41 KRLX 151733
TAFEKN
TAF
KEKN 151733Z 1518/1618 00000KT P6SM OVC025
     FM152300 05004KT 3SM -RA BR OVC015
     FM160200 VRB03KT 5SM BR OVC010
     FM160400 00000KT 5SM BR OVC015
     FM160600 00000KT 5SM BR OVC008=

USA.gov is the U.S. government's official web portal to all federal, state and local government web resources and services.